Time;durP1;ratioP1;P1;durP2;ratioP2;P2;SDS_P1;SDS_P2;PMS_P1;PMS_P2;Temp;Humidity;BMP_temperature;BMP_pressure;BME280_temperature;BME280_humidity;BME280_pressure;Samples;Min_cycle;Max_cycle;Signal;HPM_P1;HPM_P2
2022/07/10 00:00:24;;;;;;;8.80;1.52;;;17.00;63.40;;;;;;9178350;19;20014;-67
2022/07/10 00:03:29;;;;;;;6.55;1.13;;;17.00;63.40;;;;;;9168074;19;20520;-67
2022/07/10 00:06:35;;;;;;;10.23;1.30;;;17.00;63.40;;;;;;9175460;19;20018;-67
2022/07/10 00:09:42;;;;;;;6.57;1.38;;;17.00;63.40;;;;;;9173308;19;20541;-66
2022/07/10 00:12:48;;;;;;;5.20;1.10;;;17.00;63.50;;;;;;9176700;19;20010;-69
2022/07/10 00:15:53;;;;;;;7.78;1.40;;;17.00;64.20;;;;;;9174708;19;20372;-67
2022/07/10 00:18:58;;;;;;;7.07;1.92;;;17.00;63.60;;;;;;9174588;19;20070;-66
2022/07/10 00:22:04;;;;;;;5.82;0.95;;;16.90;63.60;;;;;;9177557;19;20014;-68
2022/07/10 00:25:14;;;;;;;12.73;1.50;;;16.90;63.60;;;;;;9174579;19;20029;-68
2022/07/10 00:28:19;;;;;;;8.98;1.15;;;16.90;63.80;;;;;;9172842;19;20018;-68
2022/07/10 00:31:24;;;;;;;7.80;1.77;;;16.90;63.80;;;;;;9176348;19;20025;-67
2022/07/10 00:34:29;;;;;;;9.07;1.25;;;16.90;63.80;;;;;;9177319;19;20011;-67
2022/07/10 00:37:36;;;;;;;5.00;0.90;;;16.80;63.80;;;;;;9173049;19;20011;-67
2022/07/10 00:40:43;;;;;;;7.88;1.40;;;16.80;63.80;;;;;;9173657;19;20011;-67
2022/07/10 00:43:56;;;;;;;9.63;1.83;;;16.80;63.90;;;;;;9168859;19;20365;-67
2022/07/10 00:47:01;;;;;;;6.38;1.55;;;16.70;63.90;;;;;;9174093;19;20030;-67
2022/07/10 00:50:08;;;;;;;8.30;1.00;;;16.70;63.90;;;;;;9172972;19;20010;-68
2022/07/10 00:53:14;;;;;;;9.10;1.55;;;16.70;64.00;;;;;;9174011;19;20014;-67
2022/07/10 00:56:25;;;;;;;8.10;1.15;;;16.70;64.10;;;;;;9173299;19;20014;-67
2022/07/10 00:59:30;;;;;;;10.02;1.50;;;16.70;64.10;;;;;;9173687;19;20011;-67
2022/07/10 01:02:36;;;;;;;8.48;1.50;;;16.70;64.10;;;;;;9173582;19;20019;-67
2022/07/10 01:05:41;;;;;;;10.18;1.48;;;16.60;64.10;;;;;;9170898;19;20010;-67
2022/07/10 01:08:47;;;;;;;6.03;1.10;;;16.60;64.20;;;;;;9173659;19;20510;-67
2022/07/10 01:11:55;;;;;;;8.35;1.60;;;16.60;64.30;;;;;;9174952;19;20014;-67
2022/07/10 01:15:01;;;;;;;5.65;1.40;;;16.60;64.30;;;;;;9172563;19;20015;-67
2022/07/10 01:18:06;;;;;;;6.25;1.45;;;16.60;64.30;;;;;;9173957;19;20340;-66
2022/07/10 01:21:31;;;;;;;9.90;1.23;;;16.60;64.40;;;;;;9172796;19;20819;-67
2022/07/10 01:24:36;;;;;;;8.57;2.00;;;16.60;64.60;;;;;;9180458;19;20010;-67
2022/07/10 01:27:41;;;;;;;7.38;1.40;;;16.60;64.40;;;;;;9183473;19;20616;-67
2022/07/10 01:30:47;;;;;;;5.55;1.23;;;16.50;64.50;;;;;;9184620;19;20007;-67
2022/07/10 01:33:52;;;;;;;13.77;1.83;;;16.50;64.60;;;;;;9181578;19;20070;-67
2022/07/10 01:37:00;;;;;;;8.73;1.40;;;16.50;64.60;;;;;;9183081;19;20014;-67
2022/07/10 01:40:06;;;;;;;9.45;1.40;;;16.50;64.70;;;;;;9179881;19;20019;-68
2022/07/10 01:43:11;;;;;;;11.80;1.35;;;16.50;64.70;;;;;;9178019;19;20026;-66
2022/07/10 01:46:17;;;;;;;5.78;1.40;;;16.50;64.70;;;;;;9180837;19;20910;-67
2022/07/10 01:49:22;;;;;;;7.18;1.10;;;16.50;64.80;;;;;;9180851;19;20405;-66
2022/07/10 01:52:30;;;;;;;9.30;1.77;;;16.40;64.80;;;;;;9181510;19;20022;-66
2022/07/10 01:55:35;;;;;;;9.30;1.67;;;16.40;65.00;;;;;;9182410;19;20019;-67
2022/07/10 01:58:40;;;;;;;8.20;1.38;;;16.40;64.90;;;;;;9182974;19;20351;-66
2022/07/10 02:01:46;;;;;;;13.00;2.30;;;16.40;65.00;;;;;;9181168;19;20022;-67
2022/07/10 02:04:49;;;;;;;9.10;1.42;;;16.40;65.10;;;;;;9180009;19;20034;-67
2022/07/10 02:07:57;;;;;;;6.95;1.50;;;16.30;65.00;;;;;;9181502;19;20022;-67
2022/07/10 02:11:02;;;;;;;12.45;1.98;;;16.40;65.10;;;;;;9180384;19;20025;-68
2022/07/10 02:14:08;;;;;;;5.78;1.10;;;16.30;65.10;;;;;;9181854;19;20014;-67
2022/07/10 02:17:13;;;;;;;6.07;1.60;;;16.30;65.20;;;;;;9179749;19;20015;-66
2022/07/10 02:20:18;;;;;;;17.05;1.60;;;16.30;65.30;;;;;;9181959;19;20015;-67
2022/07/10 02:23:26;;;;;;;9.25;1.50;;;16.30;65.30;;;;;;9177910;19;20022;-67
2022/07/10 02:26:31;;;;;;;8.75;2.08;;;16.20;65.30;;;;;;9178839;19;20879;-66
2022/07/10 02:29:37;;;;;;;8.00;1.20;;;16.20;65.40;;;;;;9179663;19;20487;-66
2022/07/10 02:32:42;;;;;;;4.88;1.25;;;16.20;65.40;;;;;;9182726;19;20094;-67
2022/07/10 02:35:47;;;;;;;7.03;1.55;;;16.20;65.50;;;;;;9177872;19;20832;-66
2022/07/10 02:38:56;;;;;;;5.95;1.60;;;16.20;65.50;;;;;;9176503;19;20025;-67
2022/07/10 02:42:01;;;;;;;7.53;1.95;;;16.10;65.60;;;;;;9175855;19;20018;-66
2022/07/10 02:45:07;;;;;;;7.28;1.50;;;16.10;65.60;;;;;;9181002;19;20022;-67
2022/07/10 02:48:12;;;;;;;12.15;2.00;;;16.00;65.60;;;;;;9178394;19;20023;-68
2022/07/10 02:51:17;;;;;;;9.20;1.15;;;16.00;65.70;;;;;;9179912;19;20102;-67
2022/07/10 02:54:26;;;;;;;8.10;1.02;;;16.00;65.70;;;;;;9180287;19;20014;-67
2022/07/10 02:57:31;;;;;;;5.35;1.13;;;15.90;65.80;;;;;;9178279;19;20098;-67
2022/07/10 03:00:36;;;;;;;10.82;1.98;;;15.90;65.80;;;;;;9179675;19;20019;-67
2022/07/10 03:03:41;;;;;;;10.55;1.77;;;15.90;65.90;;;;;;9177131;19;20014;-66
2022/07/10 03:06:46;;;;;;;13.10;1.83;;;15.80;65.80;;;;;;9180807;19;20029;-68
2022/07/10 03:09:53;;;;;;;9.85;1.75;;;15.80;66.00;;;;;;9176771;19;20057;-67
2022/07/10 03:12:58;;;;;;;7.38;1.42;;;15.80;66.10;;;;;;9180167;19;20011;-67
2022/07/10 03:16:03;;;;;;;7.40;2.08;;;15.70;66.00;;;;;;9179122;19;20050;-66
2022/07/10 03:19:08;;;;;;;9.43;1.77;;;15.70;66.10;;;;;;9180099;19;20015;-66
2022/07/10 03:22:13;;;;;;;10.90;2.05;;;15.70;66.10;;;;;;9177064;19;20006;-67
2022/07/10 03:25:21;;;;;;;6.05;1.25;;;15.60;66.10;;;;;;9176832;19;20010;-66
2022/07/10 03:28:26;;;;;;;9.30;1.77;;;15.60;66.30;;;;;;9178897;19;20030;-67
2022/07/10 03:31:32;;;;;;;5.28;1.30;;;15.60;66.30;;;;;;9178806;19;20048;-67
2022/07/10 03:34:37;;;;;;;8.32;1.70;;;15.50;66.30;;;;;;9177261;19;20018;-67
2022/07/10 03:37:42;;;;;;;8.02;1.65;;;15.50;67.00;;;;;;9178178;19;20014;-67
2022/07/10 03:40:50;;;;;;;7.82;1.90;;;15.50;66.40;;;;;;9178828;19;20022;-66
2022/07/10 03:43:55;;;;;;;9.80;1.58;;;15.50;66.60;;;;;;9171152;19;20014;-66
2022/07/10 03:47:00;;;;;;;9.02;1.83;;;15.40;66.40;;;;;;9175748;19;20019;-67
2022/07/10 03:50:06;;;;;;;7.28;1.77;;;15.40;66.50;;;;;;9175381;19;20053;-67
2022/07/10 03:53:12;;;;;;;6.55;1.35;;;15.30;66.60;;;;;;9176768;19;20025;-67
2022/07/10 03:59:37;;;;;;;8.57;1.52;;;15.30;66.80;;;;;;9177185;19;20356;-66
2022/07/10 04:02:42;;;;;;;10.32;1.60;;;15.30;66.70;;;;;;9174248;19;20955;-66
2022/07/10 04:05:47;;;;;;;11.27;2.78;;;15.30;66.80;;;;;;9174929;19;20090;-66
2022/07/10 04:08:53;;;;;;;5.03;1.55;;;15.30;66.90;;;;;;9175835;19;20012;-67
2022/07/10 04:12:00;;;;;;;11.82;1.50;;;15.20;66.90;;;;;;9176585;19;20014;-67
2022/07/10 04:15:06;;;;;;;10.27;1.52;;;15.20;67.00;;;;;;9177659;19;20554;-66
2022/07/10 04:18:11;;;;;;;11.82;1.50;;;15.20;67.10;;;;;;9176942;19;20022;-67
2022/07/10 04:21:17;;;;;;;5.28;1.10;;;15.20;67.10;;;;;;9175379;19;20015;-67
2022/07/10 04:24:22;;;;;;;8.65;1.55;;;15.20;67.20;;;;;;9174431;19;20085;-66
2022/07/10 04:27:30;;;;;;;9.15;1.60;;;15.20;67.30;;;;;;9174313;19;20018;-66
2022/07/10 04:30:35;;;;;;;11.18;1.90;;;15.20;67.40;;;;;;9174348;19;20419;-67
2022/07/10 04:33:40;;;;;;;5.65;1.40;;;15.20;67.40;;;;;;9177839;19;20010;-67
2022/07/10 04:36:45;;;;;;;6.07;1.38;;;15.20;67.40;;;;;;9173971;19;20072;-67
2022/07/10 04:39:50;;;;;;;10.30;1.90;;;15.20;67.40;;;;;;9175039;19;20022;-67
2022/07/10 04:43:05;;;;;;;8.48;1.67;;;15.30;67.50;;;;;;9170031;19;20018;-67
2022/07/10 04:46:10;;;;;;;8.43;1.60;;;15.30;67.60;;;;;;9172723;19;20015;-67
2022/07/10 04:49:15;;;;;;;10.77;2.33;;;15.30;67.60;;;;;;9174101;19;20018;-67
2022/07/10 04:52:20;;;;;;;11.68;1.90;;;15.30;67.60;;;;;;9175153;19;20032;-67
2022/07/10 04:55:26;;;;;;;9.88;1.45;;;15.30;67.60;;;;;;9175928;19;20045;-67
2022/07/10 04:58:33;;;;;;;10.82;3.08;;;15.30;67.60;;;;;;9175527;19;20011;-67
2022/07/10 05:01:39;;;;;;;10.13;2.35;;;15.40;67.70;;;;;;9175451;19;20045;-67
2022/07/10 05:04:44;;;;;;;6.55;1.30;;;15.40;67.70;;;;;;9173161;19;20010;-67
2022/07/10 05:07:49;;;;;;;11.07;1.52;;;15.40;67.70;;;;;;9172512;19;20496;-66
2022/07/10 05:10:54;;;;;;;10.23;1.60;;;15.40;67.70;;;;;;9173316;19;20010;-67
2022/07/10 05:14:02;;;;;;;12.45;1.85;;;15.50;67.80;;;;;;9175456;19;20048;-67
2022/07/10 05:17:07;;;;;;;8.18;1.40;;;15.50;67.80;;;;;;9173340;19;20010;-67
2022/07/10 05:20:13;;;;;;;14.63;1.58;;;15.50;67.90;;;;;;9174841;19;20022;-67
2022/07/10 05:23:19;;;;;;;6.68;1.20;;;15.50;67.80;;;;;;9174300;19;20029;-67
2022/07/10 05:26:24;;;;;;;8.05;1.52;;;15.60;67.90;;;;;;9176379;19;20014;-67
2022/07/10 05:29:31;;;;;;;5.00;1.13;;;15.60;67.90;;;;;;9179008;19;20026;-67
2022/07/10 05:32:37;;;;;;;14.05;2.30;;;15.60;68.00;;;;;;9178082;19;20038;-67
2022/07/10 05:35:42;;;;;;;11.10;2.63;;;15.60;68.00;;;;;;9177976;19;20010;-66
2022/07/10 05:38:47;;;;;;;12.10;3.85;;;15.70;68.00;;;;;;9178067;19;20108;-67
2022/07/10 05:41:52;;;;;;;5.53;1.42;;;15.70;68.10;;;;;;9170719;19;20018;-68
2022/07/10 05:45:00;;;;;;;7.68;1.40;;;15.70;68.00;;;;;;9176266;19;20093;-67
2022/07/10 05:48:05;;;;;;;6.90;1.75;;;15.70;68.10;;;;;;9178186;19;20010;-66
2022/07/10 05:51:10;;;;;;;7.45;2.05;;;15.80;68.10;;;;;;9176836;19;20019;-67
2022/07/10 05:54:35;;;;;;;6.50;1.38;;;15.80;68.10;;;;;;9177567;19;20672;-67
2022/07/10 05:57:40;;;;;;;5.72;1.17;;;15.90;68.10;;;;;;9177890;19;20018;-66
2022/07/10 06:00:49;;;;;;;8.23;1.45;;;15.90;68.10;;;;;;9177728;19;20023;-66
2022/07/10 06:03:54;;;;;;;9.60;1.38;;;15.90;68.20;;;;;;9175712;19;20098;-67
2022/07/10 06:06:59;;;;;;;10.13;1.95;;;15.90;68.10;;;;;;9175030;19;20522;-67
2022/07/10 06:10:06;;;;;;;8.73;1.67;;;16.00;68.20;;;;;;9180283;19;20018;-66
2022/07/10 06:13:11;;;;;;;13.50;1.40;;;16.00;68.20;;;;;;9184476;19;20007;-67
2022/07/10 06:16:18;;;;;;;11.32;1.40;;;16.00;68.20;;;;;;9186231;19;20019;-66
2022/07/10 06:19:23;;;;;;;11.52;1.77;;;16.10;68.30;;;;;;9184462;19;20131;-67
2022/07/10 06:22:34;;;;;;;5.63;2.03;;;16.10;68.20;;;;;;9185617;19;20015;-66
2022/07/10 06:25:39;;;;;;;5.07;1.00;;;16.10;68.30;;;;;;9183581;19;20026;-66
2022/07/10 06:28:45;;;;;;;8.75;1.75;;;16.20;68.30;;;;;;9184007;19;20505;-67
2022/07/10 06:31:52;;;;;;;13.65;3.03;;;16.20;68.30;;;;;;9184077;19;20329;-66
2022/07/10 06:34:58;;;;;;;12.43;2.17;;;16.20;68.50;;;;;;9182931;19;20040;-67
2022/07/10 06:38:04;;;;;;;6.47;1.35;;;16.30;68.50;;;;;;9184338;19;20090;-67
2022/07/10 06:41:09;;;;;;;8.57;1.80;;;16.40;68.50;;;;;;9180312;19;20010;-67
2022/07/10 06:44:14;;;;;;;7.93;1.00;;;16.40;68.60;;;;;;9186108;19;20598;-67
2022/07/10 06:50:40;;;;;;;8.20;1.50;;;16.50;68.70;;;;;;9183491;19;20056;-67
2022/07/10 06:53:45;;;;;;;11.15;1.35;;;16.60;68.70;;;;;;9180049;19;20014;-67
2022/07/10 06:56:50;;;;;;;8.02;1.30;;;16.70;68.70;;;;;;9176563;19;20068;-67
2022/07/10 06:59:55;;;;;;;13.77;1.85;;;16.70;68.70;;;;;;9183014;19;20011;-67
2022/07/10 07:03:03;;;;;;;16.35;1.80;;;16.80;68.70;;;;;;9182720;19;20022;-67
2022/07/10 07:06:10;;;;;;;12.07;1.90;;;16.90;68.80;;;;;;9182092;19;20015;-67
2022/07/10 07:09:15;;;;;;;6.70;1.40;;;16.90;68.80;;;;;;9182605;19;20014;-66
2022/07/10 07:12:20;;;;;;;14.15;2.53;;;16.90;68.80;;;;;;9180396;19;20359;-67
2022/07/10 07:15:25;;;;;;;6.10;1.33;;;16.90;68.90;;;;;;9182602;19;20013;-67
2022/07/10 07:18:37;;;;;;;8.75;1.70;;;17.00;68.90;;;;;;9180663;19;20010;-67
2022/07/10 07:25:00;;;;;;;9.65;1.70;;;17.00;69.00;;;;;;9181713;19;20479;-66
2022/07/10 07:28:05;;;;;;;9.30;1.80;;;17.00;68.90;;;;;;9183617;19;20402;-65
2022/07/10 07:31:10;;;;;;;7.32;1.83;;;17.10;69.10;;;;;;9181170;19;20772;-68
2022/07/10 07:34:22;;;;;;;4.50;1.10;;;17.10;69.10;;;;;;9183987;19;20478;-66
2022/07/10 07:37:38;;;;;;;3.75;1.15;;;17.10;69.20;;;;;;9181087;19;20018;-67
2022/07/10 07:40:43;;;;;;;7.97;2.17;;;17.20;69.40;;;;;;9180936;19;20010;-66
2022/07/10 07:43:48;;;;;;;7.50;1.15;;;17.20;69.20;;;;;;9177387;19;20010;-66
2022/07/10 07:46:53;;;;;;;6.40;1.20;;;17.20;69.20;;;;;;9181494;19;20025;-67
2022/07/10 07:50:04;;;;;;;9.98;2.35;;;17.30;69.30;;;;;;9181395;19;20029;-67
2022/07/10 07:53:09;;;;;;;7.50;1.48;;;17.30;69.50;;;;;;9180815;19;20033;-67
2022/07/10 07:56:14;;;;;;;4.70;1.50;;;17.30;69.50;;;;;;9181528;19;20014;-67
2022/07/10 07:59:20;;;;;;;4.72;1.00;;;17.40;69.80;;;;;;9182769;19;20011;-66
2022/07/10 08:02:25;;;;;;;5.38;1.27;;;17.40;70.00;;;;;;9179201;19;20022;-66
2022/07/10 08:05:33;;;;;;;7.95;1.38;;;17.40;70.10;;;;;;9178034;19;20018;-69
2022/07/10 08:08:38;;;;;;;7.03;1.30;;;17.40;70.40;;;;;;9180183;19;20011;-67
2022/07/10 08:11:44;;;;;;;5.60;1.30;;;17.40;70.50;;;;;;9179084;19;20475;-68
2022/07/10 08:14:49;;;;;;;2.95;1.38;;;17.40;70.70;;;;;;9179287;19;20414;-66
2022/07/10 08:17:55;;;;;;;5.70;1.00;;;17.50;70.90;;;;;;9180786;19;20018;-67
2022/07/10 08:21:03;;;;;;;4.07;0.88;;;17.50;71.10;;;;;;9177960;19;20048;-68
2022/07/10 08:24:08;;;;;;;5.90;1.13;;;17.50;71.40;;;;;;9173189;19;20699;-65
2022/07/10 08:27:14;;;;;;;7.28;1.42;;;17.60;71.30;;;;;;9172473;19;20029;-67
2022/07/10 08:30:19;;;;;;;6.68;1.35;;;17.60;71.40;;;;;;9171770;19;20027;-67
2022/07/10 08:33:24;;;;;;;5.70;1.40;;;17.60;71.40;;;;;;9167887;19;20025;-67
2022/07/10 08:36:32;;;;;;;8.27;1.55;;;17.80;71.60;;;;;;9173589;19;20022;-68
2022/07/10 08:39:49;;;;;;;4.85;1.23;;;17.80;71.60;;;;;;9171518;19;20027;-69
2022/07/10 08:42:54;;;;;;;7.18;1.17;;;17.90;71.60;;;;;;9175347;19;20011;-67
2022/07/10 08:46:01;;;;;;;5.65;1.23;;;18.00;71.60;;;;;;9175131;19;20026;-69
2022/07/10 08:49:13;;;;;;;3.65;1.52;;;18.10;71.70;;;;;;9177055;19;20098;-68
2022/07/10 08:52:28;;;;;;;3.25;0.93;;;18.10;71.60;;;;;;9172375;19;20030;-67
2022/07/10 08:55:37;;;;;;;5.05;1.05;;;18.20;71.60;;;;;;9178650;19;20022;-66
2022/07/10 08:58:42;;;;;;;7.15;0.85;;;18.30;71.40;;;;;;9177673;19;20375;-65
2022/07/10 09:01:48;;;;;;;2.83;0.75;;;18.40;71.30;;;;;;9175198;19;20850;-65
2022/07/10 09:04:53;;;;;;;11.02;1.10;;;18.40;71.20;;;;;;9171670;19;20022;-69
2022/07/10 09:08:01;;;;;;;4.25;0.90;;;18.50;71.20;;;;;;9174222;19;20022;-66
2022/07/10 09:11:21;;;;;;;5.35;1.05;;;18.50;71.20;;;;;;9172474;19;20019;-67
2022/07/10 09:14:28;;;;;;;5.35;1.27;;;18.60;71.30;;;;;;9174327;19;20353;-66
2022/07/10 09:17:53;;;;;;;5.00;1.35;;;18.60;71.10;;;;;;9173667;19;20025;-64
2022/07/10 09:20:58;;;;;;;4.43;1.00;;;18.70;71.30;;;;;;9173478;19;20025;-65
2022/07/10 09:24:10;;;;;;;3.63;0.60;;;18.70;71.20;;;;;;9176105;19;20348;-66
2022/07/10 09:27:17;;;;;;;2.15;0.40;;;18.70;71.30;;;;;;9173914;19;20018;-67
2022/07/10 09:30:34;;;;;;;0.77;0.38;;;18.70;71.30;;;;;;9175281;19;20031;-66
2022/07/10 09:33:42;;;;;;;2.58;0.85;;;18.70;71.60;;;;;;9166510;19;20014;-67
2022/07/10 09:36:47;;;;;;;2.58;0.65;;;18.70;71.50;;;;;;9169999;19;20010;-66
2022/07/10 09:40:00;;;;;;;1.42;0.70;;;18.70;71.70;;;;;;9172922;19;20018;-67
2022/07/10 09:43:05;;;;;;;2.40;0.73;;;18.60;72.10;;;;;;9159497;19;20085;-68
2022/07/10 09:46:11;;;;;;;4.13;0.80;;;18.60;72.00;;;;;;9170175;19;20436;-67
2022/07/10 09:49:18;;;;;;;1.90;0.80;;;18.60;72.20;;;;;;9179204;19;20078;-67
2022/07/10 09:52:23;;;;;;;2.55;1.00;;;18.60;72.40;;;;;;9176934;19;20098;-67
2022/07/10 09:55:34;;;;;;;2.60;0.60;;;18.60;72.40;;;;;;9181055;19;20014;-66
2022/07/10 09:58:40;;;;;;;0.80;0.80;;;18.60;72.60;;;;;;9181742;19;20018;-67
2022/07/10 10:01:48;;;;;;;1.90;1.00;;;18.60;72.70;;;;;;9178324;19;20026;-67
2022/07/10 10:04:54;;;;;;;4.35;1.30;;;18.60;73.50;;;;;;9182669;19;20045;-67
2022/07/10 10:08:01;;;;;;;3.17;0.90;;;18.60;72.90;;;;;;9174839;19;20018;-67
2022/07/10 10:11:11;;;;;;;4.07;2.03;;;18.70;72.90;;;;;;9178000;19;20044;-66
2022/07/10 10:14:23;;;;;;;6.70;1.55;;;18.70;73.00;;;;;;9178017;19;20022;-66
2022/07/10 10:17:31;;;;;;;1.67;0.77;;;18.70;72.90;;;;;;9182589;19;20022;-67
2022/07/10 10:20:37;;;;;;;2.17;0.80;;;18.90;72.90;;;;;;9182201;19;20033;-66
2022/07/10 10:23:42;;;;;;;3.13;0.82;;;18.90;72.70;;;;;;9176399;19;20010;-67
2022/07/10 10:26:50;;;;;;;2.08;0.93;;;19.00;72.70;;;;;;9178183;19;20026;-68
2022/07/10 10:29:56;;;;;;;5.05;0.70;;;19.00;72.50;;;;;;9173611;19;20018;-68
2022/07/10 10:33:02;;;;;;;1.10;0.47;;;19.10;72.40;;;;;;9168569;19;20022;-69
2022/07/10 10:36:08;;;;;;;1.00;0.50;;;19.10;72.30;;;;;;9172542;19;20011;-68
2022/07/10 10:39:16;;;;;;;1.52;0.90;;;19.10;72.10;;;;;;9174056;19;20030;-69
2022/07/10 10:42:41;;;;;;;2.08;0.80;;;19.10;72.00;;;;;;9170644;19;20019;-66
2022/07/10 10:45:47;;;;;;;5.80;0.75;;;19.10;72.00;;;;;;9176492;19;20014;-66
2022/07/10 10:49:06;;;;;;;3.20;0.60;;;19.00;71.90;;;;;;9172671;19;20018;-67
2022/07/10 10:52:15;;;;;;;1.35;0.50;;;19.00;71.90;;;;;;9173908;19;20011;-66
2022/07/10 10:55:20;;;;;;;1.40;0.80;;;19.00;71.80;;;;;;9175221;19;20360;-67
2022/07/10 10:58:29;;;;;;;2.92;0.80;;;19.00;71.90;;;;;;9177676;19;20017;-67
2022/07/10 11:01:34;;;;;;;2.17;0.93;;;19.00;72.00;;;;;;9178060;19;20590;-66
2022/07/10 11:04:39;;;;;;;5.40;0.90;;;19.00;72.00;;;;;;9175696;19;20022;-66
2022/07/10 11:07:58;;;;;;;3.42;0.90;;;19.00;72.20;;;;;;9174727;19;20014;-67
2022/07/10 11:11:03;;;;;;;5.32;1.15;;;19.10;72.30;;;;;;9169493;19;20074;-68
2022/07/10 11:14:13;;;;;;;3.17;1.08;;;19.10;72.20;;;;;;9169022;19;20021;-67
2022/07/10 11:17:18;;;;;;;1.70;1.33;;;19.20;72.30;;;;;;9169523;19;20026;-68
2022/07/10 11:20:23;;;;;;;3.63;1.10;;;19.30;72.30;;;;;;9162970;19;20014;-69
2022/07/10 11:23:50;;;;;;;3.17;0.80;;;19.40;72.20;;;;;;9168941;19;20018;-68
2022/07/10 11:27:07;;;;;;;3.88;1.23;;;19.40;72.20;;;;;;9171943;19;20543;-70
2022/07/10 11:30:15;;;;;;;7.70;1.30;;;19.50;72.00;;;;;;9167608;19;20025;-71
2022/07/10 11:33:21;;;;;;;3.10;1.05;;;19.60;72.00;;;;;;9163982;19;20026;-68
2022/07/10 11:36:29;;;;;;;1.73;1.20;;;19.60;72.00;;;;;;9167164;19;20018;-67
2022/07/10 11:39:34;;;;;;;5.28;1.20;;;19.60;72.10;;;;;;9177425;19;20021;-68
2022/07/10 11:42:53;;;;;;;3.55;1.17;;;19.60;72.20;;;;;;9175465;19;20479;-69
2022/07/10 11:46:02;;;;;;;3.78;1.10;;;19.70;72.40;;;;;;9175874;19;20792;-69
2022/07/10 11:49:08;;;;;;;3.03;1.30;;;19.70;72.40;;;;;;9176695;19;20018;-67
2022/07/10 11:52:13;;;;;;;5.90;1.80;;;19.70;72.40;;;;;;9173922;19;20026;-66
2022/07/10 11:55:19;;;;;;;2.90;1.52;;;19.70;72.30;;;;;;9167491;19;20589;-66
2022/07/10 11:58:25;;;;;;;4.40;1.55;;;19.70;72.40;;;;;;9172337;19;20014;-65
2022/07/10 12:01:35;;;;;;;8.13;1.95;;;19.70;72.50;;;;;;9164015;19;20021;-66
2022/07/10 12:04:41;;;;;;;4.75;1.60;;;19.70;72.90;;;;;;9163701;19;20025;-64
2022/07/10 12:07:46;;;;;;;9.70;2.55;;;19.60;72.80;;;;;;9168431;19;20018;-68
2022/07/10 12:10:51;;;;;;;8.60;2.25;;;19.60;73.00;;;;;;9172159;19;20022;-66
2022/07/10 12:13:56;;;;;;;5.25;1.90;;;19.70;73.20;;;;;;9172522;19;20014;-65
2022/07/10 12:17:04;;;;;;;5.15;1.90;;;19.70;73.30;;;;;;9163618;19;20468;-68
2022/07/10 12:20:11;;;;;;;8.65;1.80;;;19.80;73.30;;;;;;9165896;19;20015;-67
2022/07/10 12:23:17;;;;;;;7.78;1.70;;;19.80;73.10;;;;;;9171015;19;20672;-66
2022/07/10 12:26:22;;;;;;;8.93;1.95;;;19.90;73.00;;;;;;9170261;19;20606;-66
2022/07/10 12:29:29;;;;;;;10.15;1.45;;;19.90;72.90;;;;;;9171947;19;20021;-66
2022/07/10 12:32:37;;;;;;;11.20;2.05;;;20.00;72.90;;;;;;9168962;19;20361;-65
2022/07/10 12:35:51;;;;;;;3.95;1.50;;;20.00;72.80;;;;;;9174033;19;20376;-66
2022/07/10 12:39:00;;;;;;;5.70;1.80;;;20.00;72.60;;;;;;9173317;19;20013;-66
2022/07/10 12:42:07;;;;;;;3.95;1.33;;;20.00;72.60;;;;;;9172583;19;20014;-67
2022/07/10 12:45:13;;;;;;;3.78;1.45;;;20.00;72.60;;;;;;9168460;19;20015;-67
2022/07/10 12:48:26;;;;;;;8.00;1.45;;;20.00;72.70;;;;;;9170611;19;20739;-67
2022/07/10 12:51:35;;;;;;;7.93;1.60;;;20.00;72.80;;;;;;9173507;19;20021;-67
2022/07/10 12:55:14;;;;;;;4.70;1.48;;;20.00;72.60;;;;;;9170247;19;20045;-67
2022/07/10 12:58:20;;;;;;;5.88;1.65;;;20.10;72.70;;;;;;9171671;19;20019;-67
2022/07/10 13:01:25;;;;;;;5.32;1.75;;;20.10;72.60;;;;;;9167160;19;20474;-67
2022/07/10 13:04:34;;;;;;;3.42;1.40;;;20.10;72.50;;;;;;9169830;19;20079;-69
2022/07/10 13:07:40;;;;;;;5.65;1.52;;;20.20;72.60;;;;;;9172491;19;20018;-68
2022/07/10 13:10:46;;;;;;;6.25;1.70;;;20.20;72.70;;;;;;9172041;19;20026;-67
2022/07/10 13:13:51;;;;;;;7.68;2.10;;;20.10;72.70;;;;;;9171129;19;20014;-67
2022/07/10 13:16:56;;;;;;;5.32;1.55;;;20.10;72.70;;;;;;9173363;19;20011;-67
2022/07/10 13:20:04;;;;;;;4.10;1.40;;;20.10;72.80;;;;;;9179176;19;20026;-67
2022/07/10 13:23:09;;;;;;;3.92;1.33;;;20.00;72.90;;;;;;9180112;19;20476;-68
2022/07/10 13:26:14;;;;;;;5.85;1.77;;;20.00;72.90;;;;;;9182160;19;20025;-68
2022/07/10 13:29:19;;;;;;;7.28;1.55;;;20.00;73.00;;;;;;9179300;19;20388;-67
2022/07/10 13:32:25;;;;;;;4.25;1.23;;;20.00;73.10;;;;;;9172827;19;20019;-67
2022/07/10 13:35:37;;;;;;;4.63;1.25;;;20.00;73.10;;;;;;9174723;19;20034;-67
2022/07/10 13:38:43;;;;;;;1.60;0.90;;;20.10;73.20;;;;;;9172954;19;20037;-68
2022/07/10 13:41:48;;;;;;;1.52;0.80;;;20.10;73.60;;;;;;9171442;19;20017;-67
2022/07/10 13:44:55;;;;;;;6.25;1.35;;;20.10;72.90;;;;;;9168342;19;20759;-70
2022/07/10 13:48:00;;;;;;;6.18;1.45;;;20.10;72.70;;;;;;9170281;19;20010;-69
2022/07/10 13:51:07;;;;;;;7.38;2.38;;;20.20;72.70;;;;;;9176244;19;20354;-69
2022/07/10 13:54:12;;;;;;;4.95;1.10;;;20.20;72.60;;;;;;9159887;19;20014;-68
2022/07/10 13:57:18;;;;;;;5.70;1.60;;;20.20;72.40;;;;;;9172943;19;20014;-69
2022/07/10 14:00:23;;;;;;;6.78;1.50;;;20.20;72.30;;;;;;9177896;19;20036;-69
2022/07/10 14:03:28;;;;;;;5.53;1.45;;;20.20;72.30;;;;;;9178451;19;20713;-67
2022/07/10 14:06:36;;;;;;;5.45;1.38;;;20.20;72.40;;;;;;9179900;19;20022;-66
2022/07/10 14:09:41;;;;;;;9.48;1.58;;;20.20;72.40;;;;;;9177801;19;20023;-68
2022/07/10 14:12:47;;;;;;;10.80;1.27;;;20.30;72.40;;;;;;9180257;19;20414;-67
2022/07/10 14:15:52;;;;;;;3.63;1.10;;;20.30;72.20;;;;;;9170971;19;20115;-68
2022/07/10 14:18:57;;;;;;;3.83;1.17;;;20.30;72.00;;;;;;9170150;19;20029;-67
2022/07/10 14:22:05;;;;;;;3.78;0.90;;;20.30;71.90;;;;;;9177908;19;20019;-67
2022/07/10 14:25:11;;;;;;;1.60;0.90;;;20.30;71.70;;;;;;9175653;19;20476;-68
2022/07/10 14:28:16;;;;;;;5.25;1.10;;;20.30;71.70;;;;;;9174346;19;20107;-67
2022/07/10 14:31:21;;;;;;;3.20;1.23;;;20.30;71.70;;;;;;9172303;19;20019;-67
2022/07/10 14:34:28;;;;;;;5.50;1.17;;;20.30;71.60;;;;;;9173087;19;20019;-66
2022/07/10 14:37:35;;;;;;;4.30;1.10;;;20.40;71.50;;;;;;9173147;19;20010;-68
2022/07/10 14:40:41;;;;;;;5.03;1.27;;;20.50;71.50;;;;;;9176673;19;20021;-65
2022/07/10 14:43:46;;;;;;;2.67;0.77;;;20.50;71.40;;;;;;9170615;19;20022;-67
2022/07/10 14:46:51;;;;;;;4.45;1.08;;;20.60;71.30;;;;;;9172925;19;20014;-66
2022/07/10 14:49:56;;;;;;;3.88;0.95;;;20.70;71.10;;;;;;9172029;19;20814;-66
2022/07/10 14:53:05;;;;;;;3.08;1.00;;;20.80;70.90;;;;;;9171671;19;20019;-67
2022/07/10 14:56:11;;;;;;;4.75;0.95;;;20.80;70.50;;;;;;9166460;19;20023;-68
2022/07/10 14:59:16;;;;;;;9.05;1.00;;;20.90;70.50;;;;;;9168194;19;20042;-68
2022/07/10 15:02:21;;;;;;;6.15;1.00;;;21.00;70.30;;;;;;9169128;19;20021;-66
2022/07/10 15:05:26;;;;;;;2.25;0.90;;;21.00;70.10;;;;;;9167120;19;21248;-66
2022/07/10 15:08:34;;;;;;;6.03;1.10;;;21.10;69.90;;;;;;9165965;19;20018;-66
2022/07/10 15:11:39;;;;;;;4.35;1.02;;;21.10;69.70;;;;;;9168524;19;20774;-66
2022/07/10 15:14:44;;;;;;;2.78;0.90;;;21.10;69.60;;;;;;9168568;19;20368;-68
2022/07/10 15:17:49;;;;;;;8.18;1.42;;;21.10;69.50;;;;;;9169100;19;20590;-66
2022/07/10 15:20:55;;;;;;;5.60;1.23;;;21.10;69.40;;;;;;9168883;19;20022;-65
2022/07/10 15:24:06;;;;;;;4.78;0.98;;;21.20;69.40;;;;;;9170701;19;20018;-66
2022/07/10 15:27:13;;;;;;;2.13;0.75;;;21.20;69.20;;;;;;9170391;19;20916;-65
2022/07/10 15:30:22;;;;;;;3.47;1.20;;;21.20;69.10;;;;;;9168059;19;20745;-67
2022/07/10 15:33:27;;;;;;;9.00;1.20;;;21.20;69.00;;;;;;9167959;19;20021;-65
2022/07/10 15:36:32;;;;;;;8.38;1.27;;;21.20;68.90;;;;;;9163664;19;20027;-66
2022/07/10 15:39:43;;;;;;;6.38;1.02;;;21.20;68.80;;;;;;9166636;19;20022;-66
2022/07/10 15:42:48;;;;;;;3.00;1.17;;;21.20;68.70;;;;;;9162211;19;20764;-66
2022/07/10 15:45:53;;;;;;;2.85;1.15;;;21.20;68.70;;;;;;9168526;19;20025;-66
2022/07/10 15:48:59;;;;;;;2.28;1.10;;;21.20;68.70;;;;;;9168130;19;20049;-67
2022/07/10 15:52:04;;;;;;;2.78;1.13;;;21.20;68.60;;;;;;9166471;19;20681;-67
2022/07/10 15:55:12;;;;;;;3.63;0.88;;;21.20;68.50;;;;;;9164433;19;20014;-66
2022/07/10 15:58:17;;;;;;;3.55;0.85;;;21.20;68.40;;;;;;9170745;19;20022;-67
2022/07/10 16:01:23;;;;;;;4.03;1.20;;;21.20;69.10;;;;;;9168342;19;20025;-66
2022/07/10 16:04:28;;;;;;;3.58;1.00;;;21.20;68.40;;;;;;9167484;19;20019;-65
2022/07/10 16:07:33;;;;;;;6.40;0.93;;;21.20;68.20;;;;;;9171962;19;20018;-66
2022/07/10 16:10:41;;;;;;;2.45;0.93;;;21.20;68.10;;;;;;9163573;19;20011;-66
2022/07/10 16:13:46;;;;;;;7.65;1.10;;;21.20;68.10;;;;;;9177391;19;20353;-66
2022/07/10 16:16:52;;;;;;;3.67;0.98;;;21.20;68.10;;;;;;9174069;19;20085;-68
2022/07/10 16:19:59;;;;;;;5.95;1.17;;;21.20;68.00;;;;;;9176831;19;20018;-65